createdAt,value
2023-05-20T00:00:41.498Z,100.00
2023-05-20T00:03:21.155Z,100.00
2023-05-20T00:05:49.585Z,100.00
2023-05-20T00:08:19.422Z,100.00
2023-05-20T00:10:47.873Z,100.00
2023-05-20T00:13:15.874Z,100.00
2023-05-20T00:15:44.214Z,100.00
2023-05-20T00:18:12.220Z,100.00
2023-05-20T00:20:40.500Z,100.00
2023-05-20T00:23:08.521Z,100.00
2023-05-20T00:25:37.119Z,100.00
2023-05-20T00:28:06.668Z,100.00
2023-05-20T00:30:35.985Z,100.00
2023-05-20T00:33:04.497Z,100.00
2023-05-20T00:35:32.773Z,100.00
2023-05-20T00:38:00.674Z,100.00
2023-05-20T00:40:28.948Z,100.00
2023-05-20T00:42:57.140Z,100.00
2023-05-20T00:45:26.034Z,100.00
2023-05-20T00:47:54.365Z,100.00
2023-05-20T00:50:22.952Z,100.00
2023-05-20T00:52:51.856Z,100.00
2023-05-20T00:55:19.969Z,100.00
2023-05-20T00:57:51.345Z,100.00
2023-05-20T01:00:19.825Z,100.00
2023-05-20T01:02:47.696Z,100.00
2023-05-20T01:05:16.106Z,100.00
2023-05-20T01:07:44.094Z,100.00
2023-05-20T01:10:12.883Z,100.00
2023-05-20T01:12:47.175Z,100.00
2023-05-20T01:15:16.745Z,100.00
2023-05-20T01:17:47.445Z,100.00
2023-05-20T01:20:16.327Z,100.00
2023-05-20T01:22:48.578Z,100.00
2023-05-20T01:25:17.027Z,100.00
2023-05-20T01:27:49.411Z,100.00
2023-05-20T01:30:18.051Z,100.00
2023-05-20T01:32:51.408Z,100.00
2023-05-20T01:35:22.726Z,100.00
2023-05-20T01:37:52.752Z,100.00
2023-05-20T01:40:22.103Z,100.00
2023-05-20T01:42:53.607Z,100.00
2023-05-20T01:45:22.341Z,100.00
2023-05-20T01:47:50.344Z,100.00
2023-05-20T01:50:18.721Z,100.00
2023-05-20T01:52:46.726Z,100.00
2023-05-20T01:55:15.171Z,100.00
2023-05-20T01:57:43.030Z,100.00
2023-05-20T02:00:11.900Z,100.00
2023-05-20T02:02:42.744Z,100.00
2023-05-20T02:05:13.629Z,100.00
2023-05-20T02:07:43.798Z,100.00
2023-05-20T02:10:12.103Z,100.00
2023-05-20T02:12:40.156Z,100.00
2023-05-20T02:15:08.855Z,100.00
2023-05-20T02:17:37.757Z,100.00
2023-05-20T02:20:08.016Z,100.00
2023-05-20T02:22:36.054Z,100.00
2023-05-20T02:25:05.828Z,100.00
2023-05-20T02:27:33.719Z,100.00
2023-05-20T02:30:02.112Z,100.00
2023-05-20T02:32:30.126Z,100.00
2023-05-20T02:34:58.312Z,100.00
2023-05-20T02:37:26.229Z,100.00
2023-05-20T02:39:56.777Z,100.00
2023-05-20T02:42:24.417Z,100.00
2023-05-20T02:44:56.472Z,100.00
2023-05-20T02:47:25.718Z,100.00
2023-05-20T02:49:53.898Z,100.00
2023-05-20T02:52:22.310Z,100.00
2023-05-20T02:54:50.902Z,100.00
2023-05-20T02:57:19.563Z,100.00
2023-05-20T02:59:48.326Z,100.00
2023-05-20T03:02:16.638Z,100.00
2023-05-20T03:04:47.171Z,100.00
2023-05-20T03:07:17.954Z,100.00
2023-05-20T03:09:46.467Z,100.00
2023-05-20T03:12:14.324Z,100.00
2023-05-20T03:14:42.973Z,100.00
2023-05-20T03:17:11.844Z,100.00
2023-05-20T03:19:41.717Z,100.00
2023-05-20T03:22:09.817Z,100.00
2023-05-20T03:24:37.866Z,100.00
2023-05-20T03:27:07.195Z,100.00
2023-05-20T03:29:36.796Z,100.00
2023-05-20T03:32:04.862Z,100.00
2023-05-20T03:34:33.238Z,100.00
2023-05-20T03:37:02.598Z,100.00
2023-05-20T03:39:31.314Z,100.00
2023-05-20T03:41:59.309Z,100.00
2023-05-20T03:44:27.740Z,100.00
2023-05-20T03:46:55.538Z,100.00
2023-05-20T03:49:24.198Z,100.00
2023-05-20T03:51:52.636Z,100.00
2023-05-20T03:54:20.999Z,100.00
2023-05-20T03:56:52.203Z,100.00
2023-05-20T03:59:20.338Z,100.00
2023-05-20T04:01:47.968Z,100.00
2023-05-20T04:04:16.372Z,100.00
2023-05-20T04:06:44.598Z,100.00
2023-05-20T04:09:13.833Z,100.00
2023-05-20T04:11:41.619Z,100.00
2023-05-20T04:14:10.979Z,100.00
2023-05-20T04:16:39.064Z,100.00
2023-05-20T04:19:07.781Z,100.00
2023-05-20T04:21:35.661Z,100.00
2023-05-20T04:24:04.524Z,100.00
2023-05-20T04:26:34.275Z,100.00
2023-05-20T04:29:04.636Z,100.00
2023-05-20T04:31:34.655Z,100.00
2023-05-20T04:34:03.418Z,100.00
2023-05-20T04:36:31.397Z,100.00
2023-05-20T04:39:01.925Z,100.00
2023-05-20T04:41:30.390Z,100.00
2023-05-20T04:44:02.094Z,100.00
2023-05-20T04:46:31.919Z,100.00
2023-05-20T04:49:00.294Z,100.00
2023-05-20T04:51:29.832Z,100.00
2023-05-20T04:53:59.446Z,100.00
2023-05-20T04:56:30.090Z,100.00
2023-05-20T04:58:58.929Z,100.00
2023-05-20T05:01:26.745Z,100.00
2023-05-20T05:03:55.823Z,100.00
2023-05-20T05:06:23.891Z,100.00
2023-05-20T05:08:52.395Z,100.00
2023-05-20T05:11:20.223Z,100.00
2023-05-20T05:13:48.757Z,100.00
2023-05-20T05:16:17.166Z,100.00
2023-05-20T05:18:45.482Z,100.00
2023-05-20T05:21:13.343Z,100.00
2023-05-20T05:23:42.812Z,100.00
2023-05-20T05:26:10.724Z,100.00
2023-05-20T05:28:38.890Z,100.00
2023-05-20T05:31:07.718Z,100.00
2023-05-20T05:33:36.328Z,100.00
2023-05-20T05:36:04.999Z,100.00
2023-05-20T05:38:33.637Z,100.00
2023-05-20T05:41:02.051Z,100.00
2023-05-20T05:43:30.984Z,100.00
2023-05-20T05:45:59.347Z,100.00
2023-05-20T05:48:27.875Z,100.00
2023-05-20T05:50:56.236Z,100.00
2023-05-20T05:53:24.866Z,100.00
2023-05-20T05:55:53.285Z,100.00
2023-05-20T05:58:21.805Z,100.00
2023-05-20T06:00:53.342Z,100.00
2023-05-20T06:03:21.982Z,100.00
2023-05-20T06:05:50.256Z,100.00
2023-05-20T06:08:21.808Z,100.00
2023-05-20T06:10:50.645Z,100.00
2023-05-20T06:13:19.308Z,100.00
2023-05-20T06:15:50.003Z,100.00
2023-05-20T06:18:18.482Z,100.00
2023-05-20T06:20:47.024Z,100.00
2023-05-20T06:23:15.082Z,100.00
2023-05-20T06:26:08.575Z,100.00
2023-05-20T06:28:37.829Z,100.00
2023-05-20T06:31:06.702Z,100.00
2023-05-20T06:33:37.154Z,100.00
2023-05-20T06:36:11.850Z,100.00
2023-05-20T06:38:40.385Z,100.00
2023-05-20T06:41:08.907Z,100.00
2023-05-20T06:43:37.278Z,100.00
2023-05-20T06:46:09.979Z,100.00
2023-05-20T06:48:47.782Z,100.00
2023-05-20T06:51:15.657Z,100.00
2023-05-20T06:53:47.118Z,100.00
2023-05-20T06:56:15.772Z,100.00
2023-05-20T06:58:45.472Z,100.00
2023-05-20T07:01:13.892Z,100.00
2023-05-20T07:03:44.904Z,100.00
2023-05-20T07:06:13.373Z,100.00
2023-05-20T07:08:41.666Z,100.00
2023-05-20T07:11:10.221Z,100.00
2023-05-20T07:13:38.685Z,100.00
2023-05-20T07:16:07.380Z,100.00
2023-05-20T07:18:38.604Z,100.00
2023-05-20T07:21:07.045Z,100.00
2023-05-20T07:23:53.695Z,100.00
2023-05-20T07:26:22.326Z,98.13
2023-05-20T07:28:50.958Z,96.99
2023-05-20T07:31:18.892Z,91.68
2023-05-20T07:33:47.474Z,88.43
2023-05-20T07:36:15.526Z,90.17
2023-05-20T07:39:00.980Z,87.89
2023-05-20T07:41:32.081Z,90.29
2023-05-20T07:44:03.746Z,83.97
2023-05-20T07:46:33.156Z,79.43
2023-05-20T07:49:01.711Z,78.23
2023-05-20T07:51:29.555Z,77.07
2023-05-20T07:53:58.512Z,81.50
2023-05-20T07:56:27.716Z,87.82
2023-05-20T07:58:58.709Z,86.24
2023-05-20T08:01:31.426Z,86.24
2023-05-20T08:04:00.488Z,81.61
2023-05-20T08:06:29.892Z,80.46
2023-05-20T08:08:59.149Z,80.39
2023-05-20T08:11:32.241Z,79.63
2023-05-20T08:14:02.381Z,77.19
2023-05-20T08:16:36.795Z,80.50
2023-05-20T08:19:04.931Z,90.53
2023-05-20T08:21:33.529Z,81.04
2023-05-20T08:24:01.877Z,80.20
2023-05-20T08:26:30.189Z,78.21
2023-05-20T08:28:58.476Z,81.41
2023-05-20T08:31:26.978Z,80.00
2023-05-20T08:33:55.550Z,81.61
2023-05-20T08:36:24.241Z,75.55
2023-05-20T08:38:52.693Z,74.60
2023-05-20T08:41:22.548Z,81.96
2023-05-20T08:43:51.608Z,82.19
2023-05-20T08:46:23.005Z,87.55
2023-05-20T08:48:51.824Z,76.35
2023-05-20T08:51:24.362Z,75.22
2023-05-20T08:53:52.788Z,76.14
2023-05-20T08:56:20.639Z,78.10
2023-05-20T08:58:49.070Z,78.03
2023-05-20T09:01:17.412Z,78.48
2023-05-20T09:03:46.511Z,80.87
2023-05-20T09:06:21.443Z,77.01
2023-05-20T09:08:50.737Z,74.96
2023-05-20T09:11:19.332Z,75.66
2023-05-20T09:13:47.711Z,80.31
2023-05-20T09:16:16.211Z,79.35
2023-05-20T09:18:43.936Z,76.24
2023-05-20T09:21:12.241Z,77.18
2023-05-20T09:23:40.811Z,77.46
2023-05-20T09:26:08.593Z,78.56
2023-05-20T09:28:38.586Z,79.04
2023-05-20T09:31:07.442Z,81.24
2023-05-20T09:33:36.098Z,80.91
2023-05-20T09:36:09.299Z,76.42
2023-05-20T09:38:40.135Z,78.89
2023-05-20T09:41:09.767Z,75.03
2023-05-20T09:43:40.249Z,76.07
2023-05-20T09:46:08.949Z,74.28
2023-05-20T09:48:37.959Z,72.41
2023-05-20T09:51:07.501Z,73.21
2023-05-20T09:53:36.393Z,75.37
2023-05-20T09:56:04.477Z,72.65
2023-05-20T09:58:34.761Z,76.48
2023-05-20T10:01:02.865Z,74.38
2023-05-20T10:03:32.512Z,71.65
2023-05-20T10:06:37.856Z,74.25
2023-05-20T10:09:24.003Z,72.71
2023-05-20T10:12:29.124Z,72.70
2023-05-20T10:15:23.404Z,72.06
2023-05-20T10:18:10.101Z,70.67
2023-05-20T10:20:51.444Z,71.86
2023-05-20T10:23:23.136Z,69.61
2023-05-20T10:25:53.694Z,69.68
2023-05-20T10:28:38.033Z,70.82
2023-05-20T10:31:25.994Z,68.24
2023-05-20T10:33:54.455Z,72.96
2023-05-20T10:36:27.389Z,70.08
2023-05-20T10:38:59.704Z,74.06
2023-05-20T10:41:28.386Z,69.82
2023-05-20T10:44:05.849Z,68.22
2023-05-20T10:46:48.633Z,70.94
2023-05-20T10:49:26.160Z,70.72
2023-05-20T10:51:55.840Z,70.30
2023-05-20T10:54:23.950Z,69.60
2023-05-20T10:56:53.904Z,70.84
2023-05-20T10:59:22.491Z,70.22
2023-05-20T11:01:51.558Z,67.85
2023-05-20T11:04:20.023Z,69.46
2023-05-20T11:06:54.539Z,69.57
2023-05-20T11:09:23.010Z,67.56
2023-05-20T11:11:55.583Z,69.38
2023-05-20T11:14:23.509Z,69.63
2023-05-20T11:16:53.887Z,69.79
2023-05-20T11:19:22.213Z,71.95
2023-05-20T11:21:51.745Z,71.32
2023-05-20T11:24:27.726Z,69.06
2023-05-20T11:26:57.689Z,66.87
2023-05-20T11:29:27.148Z,68.53
2023-05-20T11:31:55.867Z,69.32
2023-05-20T11:34:26.784Z,68.23
2023-05-20T11:36:58.118Z,68.34
2023-05-20T11:39:27.892Z,69.18
2023-05-20T11:41:56.595Z,67.10
2023-05-20T11:44:25.072Z,67.51
2023-05-20T11:47:01.051Z,66.77
2023-05-20T11:49:29.300Z,66.54
2023-05-20T11:51:58.082Z,67.07
2023-05-20T11:54:26.509Z,67.94
2023-05-20T11:56:56.174Z,65.70
2023-05-20T11:59:25.257Z,66.06
2023-05-20T12:01:53.543Z,64.42
2023-05-20T12:04:22.222Z,68.07
2023-05-20T12:06:50.689Z,64.27
2023-05-20T12:09:18.484Z,64.33
2023-05-20T12:11:46.671Z,67.20
2023-05-20T12:14:14.921Z,67.02
2023-05-20T12:16:43.272Z,69.29
2023-05-20T12:19:11.514Z,66.14
2023-05-20T12:21:39.885Z,68.98
2023-05-20T12:24:08.824Z,68.62
2023-05-20T12:26:37.450Z,69.01
2023-05-20T12:29:05.727Z,65.82
2023-05-20T12:31:35.085Z,67.37
2023-05-20T12:34:03.285Z,70.37
2023-05-20T12:36:32.886Z,68.48
2023-05-20T12:39:01.388Z,63.26
2023-05-20T12:41:29.344Z,63.11
2023-05-20T12:43:56.807Z,67.01
2023-05-20T12:46:25.211Z,68.64
2023-05-20T12:48:53.692Z,67.75
2023-05-20T12:51:21.799Z,66.58
2023-05-20T12:53:49.982Z,66.90
2023-05-20T12:56:18.985Z,66.50
2023-05-20T12:58:47.086Z,66.33
2023-05-20T13:01:15.743Z,67.62
2023-05-20T13:03:43.475Z,65.65
2023-05-20T13:06:11.832Z,65.70
2023-05-20T13:08:39.905Z,68.40
2023-05-20T13:11:08.184Z,65.84
2023-05-20T13:13:35.954Z,64.71
2023-05-20T13:16:04.781Z,63.20
2023-05-20T13:18:32.725Z,62.84
2023-05-20T13:21:01.242Z,62.73
2023-05-20T13:23:29.242Z,62.95
2023-05-20T13:25:57.773Z,64.50
2023-05-20T13:28:25.696Z,64.85
2023-05-20T13:30:54.063Z,60.17
2023-05-20T13:33:23.763Z,61.19
2023-05-20T13:35:52.237Z,64.37
2023-05-20T13:38:20.170Z,64.88
2023-05-20T13:40:49.507Z,64.79
2023-05-20T13:43:17.378Z,65.54
2023-05-20T13:45:45.924Z,65.17
2023-05-20T13:48:13.812Z,64.32
2023-05-20T13:50:42.415Z,66.92
2023-05-20T13:53:14.112Z,66.44
2023-05-20T13:55:43.068Z,65.15
2023-05-20T13:58:11.198Z,65.51
2023-05-20T14:00:39.930Z,65.57
2023-05-20T14:03:09.567Z,66.29
2023-05-20T14:05:38.160Z,66.88
2023-05-20T14:08:06.452Z,67.32
2023-05-20T14:10:34.908Z,67.72
2023-05-20T14:13:03.327Z,68.45
2023-05-20T14:15:31.833Z,64.51
2023-05-20T14:18:00.599Z,64.45
2023-05-20T14:20:28.723Z,64.70
2023-05-20T14:22:56.615Z,68.07
2023-05-20T14:25:25.262Z,65.58
2023-05-20T14:27:52.958Z,64.47
2023-05-20T14:30:21.250Z,66.35
2023-05-20T14:32:49.332Z,64.54
2023-05-20T14:35:18.654Z,65.01
2023-05-20T14:37:46.477Z,66.48
2023-05-20T14:40:14.886Z,64.80
2023-05-20T14:42:42.720Z,66.94
2023-05-20T14:45:11.363Z,65.35
2023-05-20T14:47:40.775Z,66.74
2023-05-20T14:50:09.665Z,66.54
2023-05-20T14:52:37.721Z,66.69
2023-05-20T14:55:06.863Z,68.07
2023-05-20T14:57:34.696Z,68.60
2023-05-20T15:00:03.222Z,68.30
2023-05-20T15:02:31.790Z,69.26
2023-05-20T15:05:00.463Z,67.34
2023-05-20T15:07:28.268Z,65.04
2023-05-20T15:09:56.905Z,65.86
2023-05-20T15:12:24.674Z,67.84
2023-05-20T15:14:53.299Z,67.55
2023-05-20T15:17:22.021Z,68.93
2023-05-20T15:19:50.470Z,67.89
2023-05-20T15:22:21.821Z,68.61
2023-05-20T15:24:51.881Z,67.21
2023-05-20T15:27:19.780Z,68.50
2023-05-20T15:29:49.226Z,68.03
2023-05-20T15:32:17.937Z,69.35
2023-05-20T15:34:46.523Z,70.71
2023-05-20T15:37:14.344Z,72.19
2023-05-20T15:39:42.723Z,71.63
2023-05-20T15:42:14.386Z,71.74
2023-05-20T15:44:42.946Z,68.89
2023-05-20T15:47:11.060Z,68.77
2023-05-20T15:49:39.545Z,67.04
2023-05-20T15:52:07.471Z,67.75
2023-05-20T15:54:35.994Z,69.26
2023-05-20T15:57:04.566Z,68.42
2023-05-20T15:59:33.175Z,68.40
2023-05-20T16:02:01.092Z,68.21
2023-05-20T16:04:29.749Z,67.10
2023-05-20T16:06:57.891Z,66.27
2023-05-20T16:09:26.522Z,66.11
2023-05-20T16:11:54.665Z,67.76
2023-05-20T16:14:23.231Z,68.45
2023-05-20T16:16:51.135Z,67.05
2023-05-20T16:19:19.836Z,68.46
2023-05-20T16:21:47.965Z,68.96
2023-05-20T16:24:16.641Z,67.91
2023-05-20T16:26:44.904Z,66.11
2023-05-20T16:29:15.668Z,66.20
2023-05-20T16:31:47.233Z,65.25
2023-05-20T16:34:16.910Z,66.31
2023-05-20T16:36:48.277Z,65.63
2023-05-20T16:39:17.022Z,67.24
2023-05-20T16:41:45.479Z,66.52
2023-05-20T16:44:13.502Z,66.52
2023-05-20T16:46:41.747Z,65.50
2023-05-20T16:49:10.461Z,66.07
2023-05-20T16:51:38.471Z,66.72
2023-05-20T16:54:06.815Z,65.34
2023-05-20T16:56:37.270Z,66.19
2023-05-20T16:59:06.127Z,67.04
2023-05-20T17:01:34.240Z,66.90
2023-05-20T17:04:03.529Z,69.02
2023-05-20T17:06:34.569Z,67.62
2023-05-20T17:09:07.502Z,68.87
2023-05-20T17:11:35.878Z,70.46
2023-05-20T17:14:05.660Z,69.65
2023-05-20T17:16:33.735Z,69.49
2023-05-20T17:19:01.679Z,70.85
2023-05-20T17:21:29.402Z,71.35
2023-05-20T17:23:57.734Z,71.29
2023-05-20T17:26:26.221Z,71.59
2023-05-20T17:28:54.819Z,73.25
2023-05-20T17:31:22.773Z,73.27
2023-05-20T17:33:51.455Z,72.25
2023-05-20T17:36:19.632Z,71.37
2023-05-20T17:38:49.470Z,73.02
2023-05-20T17:41:20.290Z,73.26
2023-05-20T17:43:48.685Z,73.90
2023-05-20T17:46:16.728Z,74.44
2023-05-20T17:48:46.330Z,73.78
2023-05-20T17:51:14.380Z,74.81
2023-05-20T17:53:42.681Z,74.78
2023-05-20T17:56:11.460Z,74.78
2023-05-20T17:58:39.605Z,74.53
2023-05-20T18:01:09.820Z,76.29
2023-05-20T18:03:40.205Z,75.53
2023-05-20T18:06:09.073Z,76.62
2023-05-20T18:08:37.287Z,76.74
2023-05-20T18:11:05.549Z,76.28
2023-05-20T18:13:33.769Z,75.92
2023-05-20T18:16:01.898Z,76.94
2023-05-20T18:18:30.377Z,77.96
2023-05-20T18:20:58.340Z,79.15
2023-05-20T18:23:26.981Z,79.39
2023-05-20T18:25:55.585Z,80.44
2023-05-20T18:28:23.732Z,80.75
2023-05-20T18:30:51.615Z,82.00
2023-05-20T18:33:20.144Z,83.33
2023-05-20T18:35:47.908Z,84.42
2023-05-20T18:38:16.343Z,86.00
2023-05-20T18:40:44.312Z,86.56
2023-05-20T18:43:12.920Z,86.86
2023-05-20T18:45:41.343Z,90.03
2023-05-20T18:48:09.992Z,89.14
2023-05-20T18:50:38.090Z,90.17
2023-05-20T18:53:06.589Z,90.60
2023-05-20T18:55:35.232Z,91.64
2023-05-20T18:58:03.300Z,92.07
2023-05-20T19:00:31.567Z,92.94
2023-05-20T19:03:00.277Z,94.72
2023-05-20T19:05:28.276Z,96.05
2023-05-20T19:07:56.851Z,98.81
2023-05-20T19:10:26.201Z,99.99
2023-05-20T19:12:56.333Z,100.00
2023-05-20T19:15:24.471Z,100.00
2023-05-20T19:17:53.037Z,100.00
2023-05-20T19:20:21.077Z,100.00
2023-05-20T19:22:49.720Z,100.00
2023-05-20T19:25:17.722Z,100.00
2023-05-20T19:27:46.300Z,100.00
2023-05-20T19:30:14.071Z,100.00
2023-05-20T19:32:42.659Z,100.00
2023-05-20T19:35:11.245Z,100.00
2023-05-20T19:37:39.747Z,100.00
2023-05-20T19:40:08.466Z,100.00
2023-05-20T19:42:36.951Z,100.00
2023-05-20T19:45:05.311Z,100.00
2023-05-20T19:47:33.954Z,100.00
2023-05-20T19:50:02.507Z,100.00
2023-05-20T19:52:35.268Z,100.00
2023-05-20T19:55:03.706Z,100.00
2023-05-20T19:57:32.240Z,100.00
2023-05-20T20:00:00.234Z,100.00
2023-05-20T20:02:28.654Z,100.00
2023-05-20T20:04:56.803Z,100.00
2023-05-20T20:07:26.505Z,100.00
2023-05-20T20:09:55.926Z,100.00
2023-05-20T20:12:25.083Z,100.00
2023-05-20T20:14:53.003Z,100.00
2023-05-20T20:17:23.445Z,100.00
2023-05-20T20:19:53.794Z,100.00
2023-05-20T20:22:22.315Z,100.00
2023-05-20T20:24:50.347Z,100.00
2023-05-20T20:27:19.801Z,100.00
2023-05-20T20:29:47.970Z,100.00
2023-05-20T20:32:18.282Z,100.00
2023-05-20T20:34:46.963Z,100.00
2023-05-20T20:37:15.550Z,100.00
2023-05-20T20:39:48.621Z,100.00
2023-05-20T20:42:18.868Z,100.00
2023-05-20T20:44:48.378Z,100.00
2023-05-20T20:47:16.856Z,100.00
2023-05-20T20:49:45.784Z,100.00
2023-05-20T20:52:14.238Z,100.00
2023-05-20T20:54:43.322Z,100.00
2023-05-20T20:57:14.017Z,100.00
2023-05-20T20:59:48.025Z,100.00
2023-05-20T21:02:19.185Z,100.00
2023-05-20T21:04:48.028Z,100.00
2023-05-20T21:07:18.832Z,100.00
2023-05-20T21:09:47.175Z,100.00
2023-05-20T21:12:15.404Z,100.00
2023-05-20T21:14:44.613Z,100.00
2023-05-20T21:17:13.664Z,100.00
2023-05-20T21:19:41.401Z,100.00
2023-05-20T21:22:09.982Z,100.00
2023-05-20T21:24:37.848Z,100.00
2023-05-20T21:27:06.822Z,100.00
2023-05-20T21:29:36.168Z,100.00
2023-05-20T21:32:06.108Z,100.00
2023-05-20T21:34:34.194Z,100.00
2023-05-20T21:37:02.251Z,100.00
2023-05-20T21:39:30.695Z,100.00
2023-05-20T21:41:58.881Z,100.00
2023-05-20T21:44:26.688Z,100.00
2023-05-20T21:46:55.323Z,100.00
2023-05-20T21:49:23.165Z,100.00
2023-05-20T21:51:51.822Z,100.00
2023-05-20T21:54:19.640Z,100.00
2023-05-20T21:56:47.905Z,100.00
2023-05-20T21:59:16.551Z,100.00
2023-05-20T22:01:45.284Z,100.00
2023-05-20T22:04:13.330Z,100.00
2023-05-20T22:06:41.990Z,100.00
2023-05-20T22:09:10.013Z,100.00
2023-05-20T22:11:38.442Z,100.00
2023-05-20T22:14:06.596Z,100.00
2023-05-20T22:16:35.344Z,100.00
2023-05-20T22:19:03.819Z,100.00
2023-05-20T22:21:39.651Z,100.00
2023-05-20T22:24:16.399Z,100.00
2023-05-20T22:26:45.277Z,100.00
2023-05-20T22:29:13.215Z,100.00
2023-05-20T22:31:42.054Z,100.00
2023-05-20T22:34:10.409Z,100.00
2023-05-20T22:36:39.833Z,100.00
2023-05-20T22:39:07.976Z,100.00
2023-05-20T22:41:36.695Z,100.00
2023-05-20T22:44:05.187Z,100.00
2023-05-20T22:46:33.687Z,100.00
2023-05-20T22:49:02.109Z,100.00
2023-05-20T22:51:34.367Z,100.00
2023-05-20T22:54:02.181Z,100.00
2023-05-20T22:56:32.766Z,100.00
2023-05-20T22:59:01.308Z,100.00
2023-05-20T23:01:30.000Z,100.00
2023-05-20T23:03:58.259Z,100.00
2023-05-20T23:06:27.364Z,100.00
2023-05-20T23:08:55.493Z,100.00
2023-05-20T23:11:24.161Z,100.00
2023-05-20T23:13:52.204Z,100.00
2023-05-20T23:16:20.708Z,100.00
2023-05-20T23:18:48.637Z,100.00
2023-05-20T23:21:17.727Z,100.00
2023-05-20T23:23:46.349Z,100.00
2023-05-20T23:26:15.141Z,100.00
2023-05-20T23:28:43.122Z,100.00
2023-05-20T23:31:12.451Z,100.00
2023-05-20T23:33:40.590Z,100.00
2023-05-20T23:36:09.931Z,100.00
2023-05-20T23:38:37.725Z,100.00
2023-05-20T23:41:06.078Z,100.00
2023-05-20T23:43:34.094Z,100.00
2023-05-20T23:46:02.548Z,100.00
2023-05-20T23:48:30.164Z,100.00
2023-05-20T23:50:58.854Z,100.00
2023-05-20T23:53:26.716Z,100.00
2023-05-20T23:55:55.586Z,100.00
2023-05-20T23:58:24.075Z,100.00
